Time;durP1;ratioP1;P1;durP2;ratioP2;P2;SDS_P1;SDS_P2;PMS_P1;PMS_P2;Temp;Humidity;BMP_temperature;BMP_pressure;BME280_temperature;BME280_humidity;BME280_pressure;Samples;Min_cycle;Max_cycle;Signal;HPM_P1;HPM_P2
2022/11/14 00:02:06;;;;;;;113.25;53.28;;;6.70;99.90;;;;;;5062096;28;20093;-66
2022/11/14 00:04:31;;;;;;;58.22;20.83;;;6.60;99.90;;;;;;5059193;28;20044;-66
2022/11/14 00:06:57;;;;;;;46.35;17.55;;;6.60;99.90;;;;;;5062331;28;20646;-66
2022/11/14 00:09:28;;;;;;;107.22;54.05;;;6.60;99.90;;;;;;5062516;28;20041;-66
2022/11/14 00:11:54;;;;;;;32.72;14.60;;;6.70;99.90;;;;;;5059883;28;20036;-66
2022/11/14 00:14:20;;;;;;;40.28;18.17;;;6.70;99.90;;;;;;5060375;28;20841;-66
2022/11/14 00:16:46;;;;;;;38.13;16.23;;;6.70;99.90;;;;;;5063424;28;20039;-66
2022/11/14 00:19:12;;;;;;;113.22;53.40;;;6.60;99.90;;;;;;5063536;28;20425;-66
2022/11/14 00:21:37;;;;;;;46.70;22.08;;;6.60;99.90;;;;;;5058892;28;20048;-66
2022/11/14 00:24:03;;;;;;;44.45;18.73;;;6.70;99.90;;;;;;5060835;28;20071;-66
2022/11/14 00:26:29;;;;;;;38.55;16.27;;;6.60;99.90;;;;;;5060812;28;20536;-66
2022/11/14 00:28:55;;;;;;;38.08;16.20;;;6.70;99.90;;;;;;5062017;28;20512;-66
2022/11/14 00:31:20;;;;;;;37.33;16.65;;;6.60;99.90;;;;;;5059989;28;20473;-66
2022/11/14 00:33:46;;;;;;;114.55;55.38;;;6.60;99.90;;;;;;5059343;28;20546;-66
2022/11/14 00:36:12;;;;;;;116.85;55.72;;;6.60;99.90;;;;;;5061923;28;20059;-67
2022/11/14 00:38:38;;;;;;;41.65;19.65;;;6.70;99.90;;;;;;5061486;28;20742;-66
2022/11/14 00:41:03;;;;;;;119.97;58.92;;;7.10;99.90;;;;;;5060729;28;20041;-66
2022/11/14 00:43:29;;;;;;;127.00;63.13;;;6.60;99.90;;;;;;5060775;28;20044;-66
2022/11/14 00:45:55;;;;;;;73.72;23.77;;;6.70;99.90;;;;;;5057937;28;20041;-66
2022/11/14 00:48:21;;;;;;;121.60;62.75;;;6.60;99.90;;;;;;5060059;28;20402;-66
2022/11/14 00:50:46;;;;;;;121.63;61.13;;;6.60;99.90;;;;;;5062462;28;20513;-66
2022/11/14 00:53:12;;;;;;;40.90;18.83;;;6.70;99.90;;;;;;5060620;28;20095;-67
2022/11/14 00:55:39;;;;;;;134.88;66.00;;;6.60;99.90;;;;;;5058978;28;20040;-67
2022/11/14 00:58:04;;;;;;;139.65;67.20;;;6.60;99.90;;;;;;5061707;28;20044;-66
2022/11/14 01:00:30;;;;;;;51.13;20.05;;;6.60;99.90;;;;;;5060120;28;20041;-66
2022/11/14 01:02:57;;;;;;;63.10;27.13;;;6.50;99.90;;;;;;5062004;28;20058;-66
2022/11/14 01:05:24;;;;;;;65.63;24.17;;;6.50;99.90;;;;;;5061903;28;20043;-66
2022/11/14 01:07:50;;;;;;;143.40;68.70;;;6.50;99.90;;;;;;5062982;28;20052;-66
2022/11/14 01:10:16;;;;;;;55.13;26.50;;;6.50;99.90;;;;;;5062762;28;20041;-67
2022/11/14 01:12:42;;;;;;;65.00;23.80;;;6.40;99.90;;;;;;5060007;28;20041;-66
2022/11/14 01:15:08;;;;;;;157.15;76.05;;;6.40;99.90;;;;;;5059099;28;20048;-66
2022/11/14 01:17:34;;;;;;;155.70;75.28;;;6.40;99.90;;;;;;5062150;28;20102;-66
2022/11/14 01:20:00;;;;;;;154.52;74.32;;;6.30;99.90;;;;;;5062395;28;20052;-66
2022/11/14 01:22:25;;;;;;;47.03;24.80;;;6.30;99.90;;;;;;5062638;28;20079;-66
2022/11/14 01:24:51;;;;;;;150.98;75.05;;;6.20;99.90;;;;;;5060504;28;20425;-66
2022/11/14 01:27:17;;;;;;;167.80;79.15;;;6.20;99.90;;;;;;5059595;28;20052;-66
2022/11/14 01:29:43;;;;;;;68.43;26.27;;;6.20;99.90;;;;;;5059988;28;20045;-66
2022/11/14 01:32:08;;;;;;;63.28;25.15;;;6.20;99.90;;;;;;5060063;28;20075;-67
2022/11/14 01:34:34;;;;;;;160.73;73.82;;;6.00;99.90;;;;;;5059459;28;20037;-66
2022/11/14 01:36:59;;;;;;;61.53;23.40;;;6.10;99.90;;;;;;5057201;28;20068;-66
2022/11/14 01:39:26;;;;;;;53.95;19.45;;;6.00;99.90;;;;;;5062591;28;20082;-66
2022/11/14 01:41:51;;;;;;;170.80;80.53;;;5.90;99.90;;;;;;5061711;28;20183;-66
2022/11/14 01:44:48;;;;;;;72.15;25.23;;;5.90;99.90;;;;;;5061843;28;20145;-66
2022/11/14 01:47:19;;;;;;;58.67;21.40;;;6.00;99.90;;;;;;5059118;28;20063;-67
2022/11/14 01:49:48;;;;;;;51.45;19.63;;;5.90;99.90;;;;;;5058457;28;20067;-66
2022/11/14 01:52:27;;;;;;;52.20;17.55;;;5.90;99.90;;;;;;5060959;28;20044;-66
2022/11/14 01:55:00;;;;;;;60.30;23.92;;;5.90;99.90;;;;;;5062448;28;20040;-67
2022/11/14 01:57:31;;;;;;;49.17;17.88;;;5.90;99.90;;;;;;5060233;28;20071;-66
2022/11/14 02:00:04;;;;;;;161.25;78.30;;;5.80;99.90;;;;;;5064147;28;20143;-66
2022/11/14 02:02:30;;;;;;;72.40;25.63;;;5.80;99.90;;;;;;5062564;28;20036;-67
2022/11/14 02:05:15;;;;;;;50.88;21.25;;;5.90;99.90;;;;;;5063945;28;20436;-66
2022/11/14 02:07:41;;;;;;;54.10;18.17;;;5.80;99.90;;;;;;5062666;28;20056;-67
2022/11/14 02:10:15;;;;;;;48.25;15.18;;;5.80;99.90;;;;;;5064592;28;20044;-67
2022/11/14 02:12:41;;;;;;;168.02;82.50;;;5.80;99.90;;;;;;5061760;28;20036;-66
2022/11/14 02:15:08;;;;;;;64.22;28.05;;;5.70;99.90;;;;;;5062195;28;20052;-66
2022/11/14 02:17:34;;;;;;;174.10;85.22;;;5.80;99.90;;;;;;5063900;28;20600;-66
2022/11/14 02:20:05;;;;;;;179.00;82.65;;;5.80;99.90;;;;;;5063219;28;20106;-66
2022/11/14 02:22:31;;;;;;;166.05;83.28;;;5.90;99.90;;;;;;5061853;28;20107;-66
2022/11/14 02:24:56;;;;;;;50.28;24.73;;;5.90;99.90;;;;;;5063489;28;20043;-67
2022/11/14 02:27:22;;;;;;;176.38;83.45;;;5.90;99.90;;;;;;5064729;28;20036;-66
2022/11/14 02:29:48;;;;;;;183.80;89.10;;;6.00;99.90;;;;;;5063585;28;20051;-66
2022/11/14 02:32:14;;;;;;;44.17;20.08;;;6.00;99.90;;;;;;5060504;28;20036;-66
2022/11/14 02:34:39;;;;;;;51.15;21.45;;;6.10;99.90;;;;;;5061950;28;20093;-66
2022/11/14 02:37:06;;;;;;;180.57;83.82;;;6.00;99.90;;;;;;5062656;28;20055;-66
2022/11/14 02:39:32;;;;;;;58.22;27.17;;;6.20;99.90;;;;;;5063103;28;20501;-66
2022/11/14 02:41:58;;;;;;;187.43;86.28;;;6.40;99.90;;;;;;5063627;28;20044;-66
2022/11/14 02:44:23;;;;;;;84.57;31.00;;;6.20;99.90;;;;;;5062408;28;20142;-67
2022/11/14 02:46:49;;;;;;;69.28;27.63;;;6.20;99.90;;;;;;5064670;28;20044;-66
2022/11/14 02:49:15;;;;;;;50.38;21.83;;;6.20;99.90;;;;;;5096479;28;20490;-66
2022/11/14 02:51:41;;;;;;;170.15;84.30;;;6.20;99.90;;;;;;5063896;28;20059;-66
2022/11/14 02:54:07;;;;;;;85.25;30.77;;;6.30;99.90;;;;;;5061562;28;20072;-66
2022/11/14 02:56:32;;;;;;;61.22;23.17;;;6.30;99.90;;;;;;5060739;28;20052;-66
2022/11/14 02:58:58;;;;;;;167.32;81.95;;;6.30;99.90;;;;;;5047627;28;20043;-67
2022/11/14 03:01:24;;;;;;;58.78;27.83;;;6.30;99.90;;;;;;5064849;28;20135;-66
2022/11/14 03:03:49;;;;;;;73.47;25.02;;;6.30;99.90;;;;;;5063875;28;20090;-67
2022/11/14 03:06:15;;;;;;;174.13;83.63;;;6.30;99.90;;;;;;5096980;28;20044;-66
2022/11/14 03:08:41;;;;;;;171.70;83.63;;;6.30;99.90;;;;;;5061303;28;20037;-66
2022/11/14 03:11:08;;;;;;;161.43;81.90;;;6.40;99.90;;;;;;5061413;28;20494;-66
2022/11/14 03:13:34;;;;;;;171.73;86.68;;;6.40;99.90;;;;;;5063579;28;20131;-66
2022/11/14 03:16:08;;;;;;;46.03;24.40;;;6.40;99.90;;;;;;5064752;28;20033;-66
2022/11/14 03:18:35;;;;;;;190.80;89.07;;;6.40;99.90;;;;;;5060933;28;20460;-66
2022/11/14 03:21:05;;;;;;;65.15;22.90;;;6.40;99.90;;;;;;5047343;28;20048;-66
2022/11/14 03:23:31;;;;;;;168.15;81.50;;;6.40;99.90;;;;;;5060540;28;20709;-66
2022/11/14 03:26:02;;;;;;;54.70;23.35;;;6.40;99.90;;;;;;5060374;28;20040;-66
2022/11/14 03:28:28;;;;;;;55.13;21.83;;;6.40;99.90;;;;;;5061808;28;20541;-66
2022/11/14 03:30:54;;;;;;;63.50;24.58;;;6.40;99.90;;;;;;5061896;28;20094;-67
2022/11/14 03:33:20;;;;;;;50.75;23.05;;;6.40;99.90;;;;;;5062526;28;20037;-66
2022/11/14 03:35:51;;;;;;;156.02;77.10;;;6.40;99.90;;;;;;5063105;28;20036;-67
2022/11/14 03:38:21;;;;;;;69.03;25.90;;;6.50;99.90;;;;;;5061335;28;20123;-66
2022/11/14 03:40:48;;;;;;;165.57;81.80;;;6.40;99.90;;;;;;5062253;28;20048;-66
2022/11/14 03:43:15;;;;;;;156.90;78.72;;;6.40;99.90;;;;;;5064178;28;20349;-66
2022/11/14 03:45:40;;;;;;;72.72;28.20;;;6.50;99.90;;;;;;5063334;28;20649;-66
2022/11/14 03:48:06;;;;;;;153.07;77.32;;;6.50;99.90;;;;;;5061439;28;20056;-66
2022/11/14 03:50:32;;;;;;;167.05;80.85;;;6.50;99.90;;;;;;5062985;28;20119;-67
2022/11/14 03:52:58;;;;;;;59.67;22.30;;;6.50;99.90;;;;;;5060709;28;20497;-66
2022/11/14 03:55:24;;;;;;;153.00;80.10;;;6.50;99.90;;;;;;5060153;28;20563;-66
2022/11/14 03:57:50;;;;;;;77.63;28.08;;;6.50;99.90;;;;;;5061141;28;20123;-67
2022/11/14 04:00:16;;;;;;;161.77;80.57;;;6.50;99.90;;;;;;5062273;28;20041;-66
2022/11/14 04:02:41;;;;;;;85.32;27.65;;;6.50;99.90;;;;;;5059617;28;20040;-66
2022/11/14 04:05:08;;;;;;;75.22;23.92;;;6.50;99.90;;;;;;5063464;28;20395;-66
2022/11/14 04:07:33;;;;;;;163.65;82.18;;;6.40;99.90;;;;;;5063562;28;20045;-66
2022/11/14 04:09:59;;;;;;;62.28;23.30;;;6.40;99.90;;;;;;5059837;28;20526;-67
2022/11/14 04:12:25;;;;;;;162.13;81.00;;;6.50;99.90;;;;;;5063092;28;20337;-66
2022/11/14 04:14:50;;;;;;;157.80;80.95;;;6.50;99.90;;;;;;5062242;28;20131;-67
2022/11/14 04:17:17;;;;;;;150.77;76.22;;;6.50;99.90;;;;;;5063106;28;20044;-66
2022/11/14 04:19:43;;;;;;;154.27;78.43;;;6.80;99.90;;;;;;5062759;28;20048;-66
2022/11/14 04:22:08;;;;;;;150.25;76.45;;;6.50;99.90;;;;;;5063429;28;20076;-66
2022/11/14 04:24:34;;;;;;;65.40;27.48;;;6.50;99.90;;;;;;5063364;28;20474;-66
2022/11/14 04:27:00;;;;;;;163.38;82.28;;;6.50;99.90;;;;;;5056608;28;20046;-66
2022/11/14 04:29:25;;;;;;;153.63;79.35;;;6.50;99.90;;;;;;5060482;28;20036;-66
2022/11/14 04:31:51;;;;;;;50.55;22.27;;;6.50;99.90;;;;;;5064010;28;20098;-66
2022/11/14 04:34:17;;;;;;;44.40;21.08;;;6.50;99.90;;;;;;5061067;28;20117;-67
2022/11/14 04:36:43;;;;;;;166.95;82.57;;;6.50;99.90;;;;;;5060606;28;20040;-66
2022/11/14 04:39:08;;;;;;;150.40;79.47;;;6.40;99.90;;;;;;5058662;28;20033;-66
2022/11/14 04:41:34;;;;;;;150.93;79.40;;;6.40;99.90;;;;;;5061035;28;20568;-66
2022/11/14 04:44:00;;;;;;;164.20;82.63;;;6.50;99.90;;;;;;5059946;28;20048;-66
2022/11/14 04:46:25;;;;;;;152.02;79.13;;;6.50;99.90;;;;;;5062639;28;20098;-66
2022/11/14 04:48:51;;;;;;;155.52;79.68;;;6.50;99.90;;;;;;5063002;28;20583;-66
2022/11/14 04:51:17;;;;;;;56.25;22.90;;;6.50;99.90;;;;;;5046443;28;20045;-67
2022/11/14 04:53:43;;;;;;;163.18;81.00;;;6.40;99.90;;;;;;5061734;28;20054;-66
2022/11/14 04:56:09;;;;;;;58.50;21.55;;;6.40;99.90;;;;;;5064196;28;20722;-67
2022/11/14 04:58:35;;;;;;;170.95;84.07;;;6.40;99.90;;;;;;5058429;28;20043;-66
2022/11/14 05:01:07;;;;;;;67.57;28.25;;;6.40;99.90;;;;;;5063749;28;20068;-66
2022/11/14 05:03:33;;;;;;;167.35;81.13;;;6.40;99.90;;;;;;5057362;28;20517;-66
2022/11/14 05:06:02;;;;;;;169.07;79.88;;;6.40;99.90;;;;;;5064072;28;20033;-66
2022/11/14 05:08:28;;;;;;;163.07;80.25;;;6.40;99.90;;;;;;5060747;28;20063;-66
2022/11/14 05:10:53;;;;;;;167.90;80.72;;;6.40;99.90;;;;;;5062671;28;20040;-66
2022/11/14 05:13:19;;;;;;;83.18;29.25;;;6.40;99.90;;;;;;5060402;28;20527;-66
2022/11/14 05:15:45;;;;;;;63.63;25.75;;;6.30;99.90;;;;;;5060373;28;20557;-66
2022/11/14 05:18:10;;;;;;;166.55;82.30;;;6.30;99.90;;;;;;5059527;28;20040;-66
2022/11/14 05:20:36;;;;;;;65.40;22.00;;;6.40;99.90;;;;;;5058580;28;20106;-66
2022/11/14 05:23:02;;;;;;;64.22;20.60;;;6.30;99.90;;;;;;5059903;28;20530;-66
2022/11/14 05:25:27;;;;;;;167.80;82.65;;;6.30;99.90;;;;;;5059442;28;20058;-66
2022/11/14 05:27:53;;;;;;;169.68;82.90;;;6.30;99.90;;;;;;5060594;28;20045;-66
2022/11/14 05:30:19;;;;;;;83.38;30.45;;;6.30;99.90;;;;;;5059167;28;20037;-66
2022/11/14 05:32:46;;;;;;;167.15;80.88;;;6.30;99.90;;;;;;5062188;28;20036;-66
2022/11/14 05:35:11;;;;;;;86.53;30.50;;;6.30;99.90;;;;;;5064650;28;20048;-66
2022/11/14 05:37:37;;;;;;;154.15;80.97;;;6.30;99.90;;;;;;5067933;28;20044;-66
2022/11/14 05:40:04;;;;;;;49.20;18.05;;;6.30;99.90;;;;;;5062042;28;20044;-66
2022/11/14 05:42:30;;;;;;;84.55;27.02;;;6.20;99.90;;;;;;5065813;28;20133;-66
2022/11/14 05:44:55;;;;;;;160.70;82.93;;;6.30;99.90;;;;;;5063135;28;20078;-66
2022/11/14 05:47:21;;;;;;;188.90;84.65;;;6.20;99.90;;;;;;5064413;28;20052;-66
2022/11/14 05:49:47;;;;;;;162.45;81.28;;;6.20;99.90;;;;;;5064178;28;20036;-66
2022/11/14 05:52:12;;;;;;;169.57;82.03;;;6.20;99.90;;;;;;5067649;28;20044;-66
2022/11/14 05:54:38;;;;;;;168.98;80.15;;;6.20;99.90;;;;;;5063859;28;20086;-66
2022/11/14 05:57:05;;;;;;;163.07;79.93;;;6.10;99.90;;;;;;5063636;28;20160;-67
2022/11/14 05:59:30;;;;;;;69.72;31.08;;;6.10;99.90;;;;;;5064890;28;20045;-66
2022/11/14 06:01:58;;;;;;;160.88;80.47;;;6.00;99.90;;;;;;5066841;28;20041;-66
2022/11/14 06:04:24;;;;;;;75.03;32.83;;;6.00;99.90;;;;;;5065891;28;20478;-67
2022/11/14 06:06:49;;;;;;;175.65;81.90;;;5.90;99.90;;;;;;5066245;28;20066;-66
2022/11/14 06:09:16;;;;;;;70.18;29.73;;;5.90;99.90;;;;;;5063740;28;20139;-66
2022/11/14 06:11:41;;;;;;;171.25;76.93;;;5.90;99.90;;;;;;5062069;28;20506;-66
2022/11/14 06:14:07;;;;;;;59.17;22.92;;;5.90;99.90;;;;;;5062779;28;20055;-66
2022/11/14 06:16:32;;;;;;;170.18;79.03;;;5.90;99.90;;;;;;5062346;28;20524;-66
2022/11/14 06:18:58;;;;;;;174.35;82.40;;;5.80;99.90;;;;;;5059446;28;20044;-66
2022/11/14 06:21:25;;;;;;;47.28;22.08;;;5.80;99.90;;;;;;5063995;28;20424;-67
2022/11/14 06:23:51;;;;;;;61.42;22.38;;;5.70;99.90;;;;;;5067165;28;20154;-66
2022/11/14 06:26:31;;;;;;;169.43;80.70;;;5.70;99.90;;;;;;5065165;28;20490;-66
2022/11/14 06:28:58;;;;;;;167.10;78.30;;;5.80;99.90;;;;;;5065588;28;20048;-66
2022/11/14 06:31:25;;;;;;;176.38;80.20;;;5.80;99.90;;;;;;5065462;28;20036;-66
2022/11/14 06:33:51;;;;;;;60.95;28.02;;;5.80;99.90;;;;;;5066896;28;20049;-66
2022/11/14 06:36:17;;;;;;;173.63;82.75;;;5.70;99.90;;;;;;5069187;28;20060;-66
2022/11/14 06:38:50;;;;;;;187.10;88.20;;;5.70;99.90;;;;;;5067681;28;20040;-67
2022/11/14 06:41:19;;;;;;;176.50;84.45;;;5.80;99.90;;;;;;5066935;28;20481;-67
2022/11/14 06:43:46;;;;;;;;;;;5.80;99.90;;;;;;5068283;28;20056;-66
2022/11/14 06:46:14;;;;;;;182.55;85.75;;;5.70;99.90;;;;;;5068583;28;19928;-66
2022/11/14 06:48:41;;;;;;;66.45;29.23;;;5.70;99.90;;;;;;5066781;28;20035;-66
2022/11/14 06:51:08;;;;;;;173.20;78.88;;;5.80;99.90;;;;;;5068782;28;20068;-66
2022/11/14 06:53:35;;;;;;;88.43;33.45;;;5.70;99.90;;;;;;5066787;28;20048;-66
2022/11/14 06:56:04;;;;;;;81.63;27.77;;;5.70;99.90;;;;;;5067016;28;20043;-66
2022/11/14 06:58:35;;;;;;;187.57;87.45;;;5.70;99.90;;;;;;5061759;28;20075;-66
2022/11/14 07:01:06;;;;;;;176.68;82.35;;;5.70;99.90;;;;;;5065425;28;20045;-66
2022/11/14 07:03:32;;;;;;;82.90;27.80;;;5.70;99.90;;;;;;5098547;28;20525;-66
2022/11/14 07:06:02;;;;;;;80.88;28.17;;;5.60;99.90;;;;;;5066172;28;20055;-66
2022/11/14 07:08:30;;;;;;;89.88;24.13;;;5.80;99.90;;;;;;5067506;28;20097;-66
2022/11/14 07:11:07;;;;;;;166.27;80.60;;;5.70;99.90;;;;;;5065077;28;20036;-66
2022/11/14 07:13:34;;;;;;;67.47;25.48;;;5.70;99.90;;;;;;5065049;28;20041;-66
2022/11/14 07:16:01;;;;;;;84.00;32.63;;;5.80;99.90;;;;;;5065955;28;20072;-66
2022/11/14 07:18:29;;;;;;;65.35;24.25;;;5.70;99.90;;;;;;5067504;28;20045;-66
2022/11/14 07:21:02;;;;;;;80.13;28.63;;;5.70;99.90;;;;;;5067872;28;20180;-66
2022/11/14 07:23:30;;;;;;;187.05;83.75;;;5.60;99.90;;;;;;5065899;28;20095;-66
2022/11/14 07:26:03;;;;;;;87.93;28.52;;;6.30;99.90;;;;;;5067318;28;21342;-66
2022/11/14 07:28:30;;;;;;;193.40;86.47;;;5.70;99.90;;;;;;5064794;28;20058;-66
2022/11/14 07:30:56;;;;;;;63.50;21.67;;;5.70;99.90;;;;;;5066745;28;20768;-66
2022/11/14 07:33:21;;;;;;;46.53;20.05;;;5.80;99.90;;;;;;5065922;28;20037;-66
2022/11/14 07:35:47;;;;;;;184.80;85.18;;;5.70;99.90;;;;;;5065104;28;20045;-66
2022/11/14 07:38:13;;;;;;;195.20;91.68;;;5.70;99.90;;;;;;5064499;28;21295;-66
2022/11/14 07:40:38;;;;;;;60.05;26.88;;;5.70;99.90;;;;;;5065156;28;20045;-66
2022/11/14 07:43:04;;;;;;;184.82;88.03;;;5.80;99.90;;;;;;5065411;28;20033;-66
2022/11/14 07:45:30;;;;;;;176.10;83.65;;;5.80;99.90;;;;;;5065539;28;20033;-66
2022/11/14 07:47:57;;;;;;;61.80;20.83;;;5.80;99.90;;;;;;5062159;28;20033;-66
2022/11/14 07:50:24;;;;;;;169.35;79.57;;;5.80;99.90;;;;;;5064303;28;20493;-66
2022/11/14 07:52:51;;;;;;;174.38;80.18;;;5.80;99.90;;;;;;5063430;28;20067;-66
2022/11/14 07:55:18;;;;;;;81.10;27.27;;;5.70;99.90;;;;;;5061361;28;20044;-66
2022/11/14 07:57:44;;;;;;;58.50;23.75;;;5.80;99.90;;;;;;5057898;28;20494;-66
2022/11/14 08:00:11;;;;;;;175.90;83.72;;;5.80;99.90;;;;;;5061443;28;20037;-66
2022/11/14 08:02:36;;;;;;;73.32;24.63;;;5.70;99.90;;;;;;5062607;28;20401;-66
2022/11/14 08:05:02;;;;;;;60.60;25.40;;;5.80;99.90;;;;;;5063034;28;20033;-66
2022/11/14 08:07:28;;;;;;;164.25;82.20;;;5.80;99.90;;;;;;5063867;28;20056;-66
2022/11/14 08:09:53;;;;;;;179.50;86.63;;;5.80;99.90;;;;;;5062919;28;20037;-66
2022/11/14 08:12:19;;;;;;;99.32;35.88;;;5.80;99.90;;;;;;5060599;28;20123;-66
2022/11/14 08:14:45;;;;;;;168.25;77.18;;;5.90;99.90;;;;;;5062077;28;20075;-67
2022/11/14 08:17:10;;;;;;;50.20;22.00;;;5.90;99.90;;;;;;5062530;28;20079;-66
2022/11/14 08:19:36;;;;;;;166.82;80.95;;;5.80;99.90;;;;;;5057155;28;20076;-66
2022/11/14 08:22:02;;;;;;;169.25;82.82;;;5.90;99.90;;;;;;5064531;28;20121;-66
2022/11/14 08:24:27;;;;;;;162.63;80.60;;;6.00;99.90;;;;;;5061162;28;20040;-65
2022/11/14 08:26:54;;;;;;;66.47;26.70;;;6.00;99.90;;;;;;5064254;28;20127;-66
2022/11/14 08:29:20;;;;;;;180.85;83.25;;;5.90;99.90;;;;;;5066021;28;20454;-70
2022/11/14 08:31:46;;;;;;;72.78;32.20;;;6.00;99.90;;;;;;5063823;28;20040;-70
2022/11/14 08:34:11;;;;;;;67.32;24.80;;;6.00;99.90;;;;;;5047516;28;20059;-70
2022/11/14 08:36:37;;;;;;;69.70;25.10;;;6.00;99.90;;;;;;5058678;28;20045;-70
2022/11/14 08:39:03;;;;;;;172.38;80.40;;;6.00;99.90;;;;;;5058364;28;20127;-70
2022/11/14 08:41:28;;;;;;;69.40;26.80;;;6.10;99.90;;;;;;5058794;28;21186;-70
2022/11/14 08:43:54;;;;;;;67.13;22.67;;;6.10;99.90;;;;;;5061736;28;20040;-70
2022/11/14 08:46:20;;;;;;;181.10;82.85;;;6.10;99.90;;;;;;5096882;28;20052;-70
2022/11/14 08:48:45;;;;;;;57.00;20.67;;;6.00;99.90;;;;;;5062941;28;20033;-70
2022/11/14 08:51:11;;;;;;;164.85;79.75;;;6.20;99.90;;;;;;5045257;28;20072;-70
2022/11/14 08:53:37;;;;;;;84.20;30.77;;;6.20;99.90;;;;;;5056110;28;20095;-70
2022/11/14 08:56:03;;;;;;;72.95;26.63;;;6.20;99.90;;;;;;5062902;28;20492;-70
2022/11/14 08:58:30;;;;;;;81.65;27.88;;;6.20;99.90;;;;;;5058031;28;20041;-70
2022/11/14 09:01:04;;;;;;;172.23;80.82;;;6.10;99.90;;;;;;5059203;28;20072;-70
2022/11/14 09:03:30;;;;;;;51.78;22.33;;;6.20;99.90;;;;;;5046331;28;20067;-70
2022/11/14 09:05:56;;;;;;;62.30;26.10;;;6.20;99.90;;;;;;5058305;28;20128;-70
2022/11/14 09:08:22;;;;;;;156.85;79.70;;;6.10;99.90;;;;;;5064128;28;20480;-69
2022/11/14 09:10:48;;;;;;;63.20;29.23;;;6.30;99.90;;;;;;5065646;28;20041;-71
2022/11/14 09:13:13;;;;;;;158.77;78.97;;;6.30;99.90;;;;;;5069551;28;20101;-70
2022/11/14 09:15:39;;;;;;;77.38;29.30;;;6.30;99.90;;;;;;5064467;28;20444;-70
2022/11/14 09:18:05;;;;;;;71.35;26.60;;;6.30;99.90;;;;;;5069136;28;20075;-70
2022/11/14 09:20:31;;;;;;;62.30;19.15;;;6.40;99.90;;;;;;5070777;28;20061;-70
2022/11/14 09:23:01;;;;;;;67.22;24.38;;;6.40;99.90;;;;;;5067444;28;20428;-70
2022/11/14 09:25:28;;;;;;;61.63;23.55;;;6.40;99.90;;;;;;5067087;28;20040;-71
2022/11/14 09:27:54;;;;;;;50.92;24.27;;;6.50;99.90;;;;;;5061073;28;20059;-71
2022/11/14 09:30:21;;;;;;;140.43;75.53;;;6.50;99.90;;;;;;5068632;28;20044;-70
2022/11/14 09:32:48;;;;;;;62.33;27.48;;;6.60;99.90;;;;;;5103409;28;20045;-70
2022/11/14 09:35:14;;;;;;;70.20;20.42;;;6.60;99.90;;;;;;5068424;28;20095;-70
2022/11/14 09:37:40;;;;;;;136.32;73.93;;;6.60;99.90;;;;;;5070319;28;20154;-70
2022/11/14 09:40:07;;;;;;;85.40;32.47;;;6.70;99.90;;;;;;5051759;28;20041;-70
2022/11/14 09:42:44;;;;;;;129.65;71.70;;;6.70;99.90;;;;;;5065893;28;20045;-71
2022/11/14 09:45:14;;;;;;;62.88;28.52;;;6.70;99.90;;;;;;5063941;28;20048;-72
2022/11/14 09:47:47;;;;;;;60.42;22.80;;;6.70;99.90;;;;;;5063776;28;20583;-72
2022/11/14 09:50:19;;;;;;;60.85;19.17;;;6.70;99.90;;;;;;5069167;28;20044;-72
2022/11/14 09:52:50;;;;;;;136.52;68.45;;;6.90;99.90;;;;;;5063764;28;20049;-72
2022/11/14 09:55:22;;;;;;;125.35;68.95;;;7.00;99.90;;;;;;5062711;28;20084;-72
2022/11/14 09:57:48;;;;;;;66.75;23.17;;;7.10;99.90;;;;;;5058564;28;20048;-72
2022/11/14 10:00:15;;;;;;;125.10;69.32;;;7.20;99.90;;;;;;5056706;28;20919;-72
2022/11/14 10:02:51;;;;;;;59.53;25.17;;;7.30;99.90;;;;;;5097535;28;20044;-72
2022/11/14 10:05:42;;;;;;;50.05;20.77;;;7.30;99.90;;;;;;5065846;28;20055;-71
2022/11/14 10:08:27;;;;;;;53.08;19.02;;;7.20;99.90;;;;;;5063119;28;20568;-72
2022/11/14 10:11:09;;;;;;;128.75;65.50;;;7.20;99.90;;;;;;5059800;28;20082;-71
2022/11/14 10:13:59;;;;;;;78.20;27.65;;;7.30;99.90;;;;;;5068000;28;20821;-71
2022/11/14 10:16:43;;;;;;;132.15;64.18;;;7.20;99.90;;;;;;5063505;28;20048;-71
2022/11/14 10:19:40;;;;;;;120.93;60.97;;;7.30;99.90;;;;;;5058845;28;20051;-71
2022/11/14 10:22:50;;;;;;;123.63;66.20;;;7.40;99.90;;;;;;5064977;28;20049;-71
2022/11/14 10:25:24;;;;;;;54.92;24.05;;;7.30;99.90;;;;;;5050842;28;20052;-71
2022/11/14 10:28:04;;;;;;;52.08;23.80;;;7.30;99.90;;;;;;5061563;28;20127;-71
2022/11/14 10:30:44;;;;;;;62.65;22.08;;;7.30;99.90;;;;;;5098123;28;20186;-71
2022/11/14 10:33:21;;;;;;;132.77;65.93;;;7.30;99.90;;;;;;5065639;28;20428;-71
2022/11/14 10:35:56;;;;;;;117.68;65.47;;;7.30;99.90;;;;;;5082212;28;20041;-71
2022/11/14 10:38:24;;;;;;;115.85;66.07;;;7.30;99.90;;;;;;5094512;28;20044;-72
2022/11/14 10:40:51;;;;;;;;;;;7.30;99.90;;;;;;5063901;28;20052;-71
2022/11/14 10:43:23;;;;;;;65.63;26.23;;;7.40;99.90;;;;;;5067282;28;20022;-72
2022/11/14 10:46:09;;;;;;;61.83;22.85;;;7.30;99.90;;;;;;5066822;28;20047;-72
2022/11/14 10:48:38;;;;;;;120.43;66.28;;;7.30;99.90;;;;;;5065158;28;20048;-71
2022/11/14 10:51:31;;;;;;;62.45;24.55;;;7.30;99.90;;;;;;5067659;28;20485;-71
2022/11/14 10:54:23;;;;;;;59.40;21.58;;;7.40;99.90;;;;;;5064638;28;20057;-71
2022/11/14 10:56:52;;;;;;;58.63;21.88;;;7.30;99.90;;;;;;5063400;28;20048;-72
2022/11/14 10:59:18;;;;;;;119.53;62.70;;;7.30;99.90;;;;;;5061408;28;20037;-72
2022/11/14 11:01:53;;;;;;;121.68;66.38;;;7.50;99.90;;;;;;5063401;28;20056;-72
2022/11/14 11:04:25;;;;;;;52.50;24.30;;;7.70;99.90;;;;;;5061193;28;20052;-72
2022/11/14 11:07:07;;;;;;;111.13;62.47;;;7.80;99.90;;;;;;5063595;28;20055;-71
2022/11/14 12:23:52;;;;;;;75.45;46.30;;;16.30;99.90;;;;;;5102089;27;1231021;-73
2022/11/14 12:26:23;;;;;;;70.22;46.15;;;15.00;99.90;;;;;;5118168;27;20130;-73
2022/11/14 12:29:06;;;;;;;77.40;47.85;;;13.80;99.90;;;;;;5117015;27;20042;-73
2022/11/14 12:31:35;;;;;;;89.15;48.15;;;12.90;99.90;;;;;;5136972;27;20047;-73
2022/11/14 12:34:26;;;;;;;81.32;48.20;;;12.10;99.90;;;;;;5117110;27;20411;-73
2022/11/14 12:36:52;;;;;;;81.20;47.63;;;11.60;99.90;;;;;;5138323;27;21092;-74
2022/11/14 12:39:28;;;;;;;74.97;47.10;;;11.20;99.90;;;;;;5118725;27;20039;-73
2022/11/14 12:42:06;;;;;;;77.88;45.78;;;10.80;99.90;;;;;;5129712;27;20043;-73
2022/11/14 12:44:37;;;;;;;75.35;48.45;;;10.50;99.90;;;;;;5118124;27;20039;-73
2022/11/14 12:47:06;;;;;;;77.95;47.15;;;10.30;99.90;;;;;;5117208;27;20043;-73
2022/11/14 12:49:57;;;;;;;76.85;45.75;;;10.20;99.90;;;;;;5130082;27;20508;-73
2022/11/14 12:52:47;;;;;;;84.57;49.50;;;10.00;99.90;;;;;;5103766;27;20051;-73
2022/11/14 12:55:25;;;;;;;78.40;50.90;;;9.90;99.90;;;;;;5104311;28;20122;-73
2022/11/14 12:58:07;;;;;;;76.85;48.33;;;9.80;99.90;;;;;;5124629;28;20046;-73
2022/11/14 13:00:44;;;;;;;81.95;47.20;;;9.80;99.90;;;;;;5104881;28;20086;-73
2022/11/14 13:03:48;;;;;;;85.53;50.25;;;9.70;99.90;;;;;;5103302;28;20391;-73
2022/11/14 13:06:23;;;;;;;85.00;49.58;;;9.70;99.90;;;;;;5102425;28;20072;-73
2022/11/14 13:09:27;;;;;;;76.85;46.50;;;9.70;99.90;;;;;;5122982;27;20047;-73
2022/11/14 13:23:24;;;;;;;78.93;45.40;;;9.60;99.90;;;;;;5100154;28;20047;-73
2022/11/14 13:26:09;;;;;;;80.95;47.97;;;9.50;99.90;;;;;;5104681;28;20454;-73
2022/11/14 13:28:36;;;;;;;73.95;45.38;;;9.60;99.90;;;;;;5101668;28;20058;-72
2022/11/14 13:31:14;;;;;;;96.00;45.60;;;9.60;99.90;;;;;;5123858;28;20496;-72
2022/11/14 13:33:45;;;;;;;70.03;43.85;;;9.60;99.90;;;;;;5095843;28;20117;-73
2022/11/14 13:36:43;;;;;;;72.53;45.95;;;9.60;99.90;;;;;;5092351;28;20467;-73
2022/11/14 13:39:22;;;;;;;59.45;41.17;;;9.60;99.90;;;;;;5100346;28;20067;-73
2022/11/14 13:42:13;;;;;;;72.70;45.28;;;9.50;99.90;;;;;;5089071;28;20047;-72
2022/11/14 13:45:15;;;;;;;69.47;43.70;;;9.50;99.90;;;;;;5108208;28;20113;-72
2022/11/14 13:47:46;;;;;;;71.88;41.42;;;9.50;99.90;;;;;;5082390;28;20044;-73
2022/11/14 13:50:25;;;;;;;67.65;41.22;;;9.30;99.90;;;;;;5085089;28;20044;-72
2022/11/14 13:52:51;;;;;;;67.68;39.28;;;9.30;99.90;;;;;;5082670;28;20107;-73
2022/11/14 13:55:33;;;;;;;67.72;43.25;;;9.30;99.90;;;;;;5108544;27;20051;-72
2022/11/14 13:58:01;;;;;;;70.97;41.40;;;9.30;99.90;;;;;;5110119;28;20043;-72
2022/11/14 14:00:29;;;;;;;;;;;9.20;99.90;;;;;;5091789;28;20043;-72
2022/11/14 14:03:14;;;;;;;57.93;39.00;;;9.20;99.90;;;;;;5112403;27;20364;-72
2022/11/14 14:05:42;;;;;;;69.35;40.28;;;9.10;99.90;;;;;;5091121;28;20842;-72
2022/11/14 14:08:11;;;;;;;;;;;9.10;99.90;;;;;;5091425;28;20040;-73
2022/11/14 14:11:08;;;;;;;70.03;39.08;;;9.00;99.90;;;;;;5107746;28;20682;-72